sensor_id;sensor_type;location;lat;lon;timestamp;P1;durP1;ratioP1;P2;durP2;ratioP2
13083;SDS011;6608;48.790;9.198;2024-02-23T00:02:25;123.10;;;56.23;;
13083;SDS011;6608;48.790;9.198;2024-02-23T00:04:51;121.37;;;55.30;;
13083;SDS011;6608;48.790;9.198;2024-02-23T00:07:17;122.03;;;55.87;;
13083;SDS011;6608;48.790;9.198;2024-02-23T00:09:46;122.77;;;56.17;;
13083;SDS011;6608;48.790;9.198;2024-02-23T00:12:12;123.00;;;56.20;;
13083;SDS011;6608;48.790;9.198;2024-02-23T00:14:39;121.93;;;55.93;;
13083;SDS011;6608;48.790;9.198;2024-02-23T00:17:04;121.67;;;56.03;;
13083;SDS011;6608;48.790;9.198;2024-02-23T00:19:31;123.17;;;56.07;;
13083;SDS011;6608;48.790;9.198;2024-02-23T00:21:57;119.70;;;55.17;;
13083;SDS011;6608;48.790;9.198;2024-02-23T00:24:24;120.97;;;55.53;;
13083;SDS011;6608;48.790;9.198;2024-02-23T00:26:52;120.00;;;55.40;;
13083;SDS011;6608;48.790;9.198;2024-02-23T00:29:18;120.03;;;55.40;;
13083;SDS011;6608;48.790;9.198;2024-02-23T00:31:44;122.00;;;55.90;;
13083;SDS011;6608;48.790;9.198;2024-02-23T00:34:11;117.63;;;54.37;;
13083;SDS011;6608;48.790;9.198;2024-02-23T00:36:38;122.73;;;55.90;;
13083;SDS011;6608;48.790;9.198;2024-02-23T00:39:05;117.93;;;54.70;;
13083;SDS011;6608;48.790;9.198;2024-02-23T00:41:32;121.70;;;55.97;;
13083;SDS011;6608;48.790;9.198;2024-02-23T00:44:00;120.43;;;55.33;;
13083;SDS011;6608;48.790;9.198;2024-02-23T00:46:26;121.50;;;56.03;;
13083;SDS011;6608;48.790;9.198;2024-02-23T00:48:53;120.60;;;55.77;;
13083;SDS011;6608;48.790;9.198;2024-02-23T00:51:19;120.23;;;55.53;;
13083;SDS011;6608;48.790;9.198;2024-02-23T00:53:46;122.27;;;56.33;;
13083;SDS011;6608;48.790;9.198;2024-02-23T00:56:12;119.67;;;55.10;;
13083;SDS011;6608;48.790;9.198;2024-02-23T00:58:39;122.93;;;56.47;;
13083;SDS011;6608;48.790;9.198;2024-02-23T01:01:06;119.80;;;55.30;;
13083;SDS011;6608;48.790;9.198;2024-02-23T01:03:33;121.13;;;56.10;;
13083;SDS011;6608;48.790;9.198;2024-02-23T01:05:59;119.13;;;54.97;;
13083;SDS011;6608;48.790;9.198;2024-02-23T01:08:26;117.83;;;55.10;;
13083;SDS011;6608;48.790;9.198;2024-02-23T01:10:52;121.43;;;56.00;;
13083;SDS011;6608;48.790;9.198;2024-02-23T01:13:19;119.87;;;55.17;;
13083;SDS011;6608;48.790;9.198;2024-02-23T01:15:45;125.30;;;56.90;;
13083;SDS011;6608;48.790;9.198;2024-02-23T01:18:13;121.43;;;56.13;;
13083;SDS011;6608;48.790;9.198;2024-02-23T01:20:39;117.60;;;54.90;;
13083;SDS011;6608;48.790;9.198;2024-02-23T01:23:06;120.20;;;55.73;;
13083;SDS011;6608;48.790;9.198;2024-02-23T01:25:33;121.63;;;55.97;;
13083;SDS011;6608;48.790;9.198;2024-02-23T01:28:00;119.97;;;55.60;;
13083;SDS011;6608;48.790;9.198;2024-02-23T01:30:26;119.80;;;55.50;;
13083;SDS011;6608;48.790;9.198;2024-02-23T01:32:52;119.63;;;55.07;;
13083;SDS011;6608;48.790;9.198;2024-02-23T01:35:20;119.83;;;55.30;;
13083;SDS011;6608;48.790;9.198;2024-02-23T01:37:47;115.83;;;54.30;;
13083;SDS011;6608;48.790;9.198;2024-02-23T01:40:13;122.00;;;55.93;;
13083;SDS011;6608;48.790;9.198;2024-02-23T01:42:40;124.27;;;56.80;;
13083;SDS011;6608;48.790;9.198;2024-02-23T01:45:06;119.00;;;55.57;;
13083;SDS011;6608;48.790;9.198;2024-02-23T01:47:33;119.37;;;55.50;;
13083;SDS011;6608;48.790;9.198;2024-02-23T01:49:59;123.20;;;56.10;;
13083;SDS011;6608;48.790;9.198;2024-02-23T01:52:27;118.00;;;55.20;;
13083;SDS011;6608;48.790;9.198;2024-02-23T01:54:54;122.23;;;56.07;;
13083;SDS011;6608;48.790;9.198;2024-02-23T01:57:21;118.57;;;55.30;;
13083;SDS011;6608;48.790;9.198;2024-02-23T01:59:49;122.30;;;55.60;;
13083;SDS011;6608;48.790;9.198;2024-02-23T02:02:15;118.73;;;55.10;;
13083;SDS011;6608;48.790;9.198;2024-02-23T02:04:42;118.00;;;55.07;;
13083;SDS011;6608;48.790;9.198;2024-02-23T02:07:09;120.53;;;56.07;;
13083;SDS011;6608;48.790;9.198;2024-02-23T02:09:37;120.43;;;55.57;;
13083;SDS011;6608;48.790;9.198;2024-02-23T02:12:03;121.23;;;55.93;;
13083;SDS011;6608;48.790;9.198;2024-02-23T02:14:30;120.83;;;55.10;;
13083;SDS011;6608;48.790;9.198;2024-02-23T02:16:58;121.40;;;56.00;;
13083;SDS011;6608;48.790;9.198;2024-02-23T02:19:24;122.83;;;55.33;;
13083;SDS011;6608;48.790;9.198;2024-02-23T02:21:51;119.67;;;55.27;;
13083;SDS011;6608;48.790;9.198;2024-02-23T02:24:17;120.63;;;55.40;;
13083;SDS011;6608;48.790;9.198;2024-02-23T02:26:45;119.03;;;55.40;;
13083;SDS011;6608;48.790;9.198;2024-02-23T02:29:13;121.57;;;56.10;;
13083;SDS011;6608;48.790;9.198;2024-02-23T02:31:39;119.13;;;55.37;;
13083;SDS011;6608;48.790;9.198;2024-02-23T02:34:06;121.23;;;55.87;;
13083;SDS011;6608;48.790;9.198;2024-02-23T02:36:33;119.40;;;55.47;;
13083;SDS011;6608;48.790;9.198;2024-02-23T02:39:00;118.00;;;54.67;;
13083;SDS011;6608;48.790;9.198;2024-02-23T02:41:27;117.97;;;55.00;;
13083;SDS011;6608;48.790;9.198;2024-02-23T02:43:56;118.43;;;55.23;;
13083;SDS011;6608;48.790;9.198;2024-02-23T02:46:22;119.23;;;55.43;;
13083;SDS011;6608;48.790;9.198;2024-02-23T02:48:49;117.20;;;54.77;;
13083;SDS011;6608;48.790;9.198;2024-02-23T02:51:15;121.50;;;56.20;;
13083;SDS011;6608;48.790;9.198;2024-02-23T02:53:41;117.73;;;54.93;;
13083;SDS011;6608;48.790;9.198;2024-02-23T02:56:08;119.70;;;55.20;;
13083;SDS011;6608;48.790;9.198;2024-02-23T02:58:34;121.03;;;55.47;;
13083;SDS011;6608;48.790;9.198;2024-02-23T03:01:02;119.17;;;55.27;;
13083;SDS011;6608;48.790;9.198;2024-02-23T03:03:29;124.43;;;55.90;;
13083;SDS011;6608;48.790;9.198;2024-02-23T03:05:55;118.93;;;55.43;;
13083;SDS011;6608;48.790;9.198;2024-02-23T03:08:21;119.60;;;55.43;;
13083;SDS011;6608;48.790;9.198;2024-02-23T03:10:48;118.27;;;55.07;;
13083;SDS011;6608;48.790;9.198;2024-02-23T03:13:14;118.97;;;55.03;;
13083;SDS011;6608;48.790;9.198;2024-02-23T03:15:41;118.47;;;54.83;;
13083;SDS011;6608;48.790;9.198;2024-02-23T03:18:09;120.40;;;55.30;;
13083;SDS011;6608;48.790;9.198;2024-02-23T03:20:35;117.83;;;55.03;;
13083;SDS011;6608;48.790;9.198;2024-02-23T03:23:02;118.90;;;55.07;;
13083;SDS011;6608;48.790;9.198;2024-02-23T03:25:28;119.80;;;54.77;;
13083;SDS011;6608;48.790;9.198;2024-02-23T03:27:55;118.30;;;55.30;;
13083;SDS011;6608;48.790;9.198;2024-02-23T03:30:21;116.90;;;54.27;;
13083;SDS011;6608;48.790;9.198;2024-02-23T03:32:48;117.43;;;54.07;;
13083;SDS011;6608;48.790;9.198;2024-02-23T03:35:16;119.63;;;55.37;;
13083;SDS011;6608;48.790;9.198;2024-02-23T03:37:42;116.97;;;54.87;;
13083;SDS011;6608;48.790;9.198;2024-02-23T03:40:09;116.47;;;54.47;;
13083;SDS011;6608;48.790;9.198;2024-02-23T03:42:36;120.50;;;55.50;;
13083;SDS011;6608;48.790;9.198;2024-02-23T03:45:03;118.43;;;55.30;;
13083;SDS011;6608;48.790;9.198;2024-02-23T03:47:30;118.70;;;55.47;;
13083;SDS011;6608;48.790;9.198;2024-02-23T03:49:56;116.93;;;54.67;;
13083;SDS011;6608;48.790;9.198;2024-02-23T03:52:24;120.17;;;54.93;;
13083;SDS011;6608;48.790;9.198;2024-02-23T03:54:51;120.07;;;55.50;;
13083;SDS011;6608;48.790;9.198;2024-02-23T03:57:19;117.20;;;54.20;;
13083;SDS011;6608;48.790;9.198;2024-02-23T03:59:51;121.07;;;55.43;;
13083;SDS011;6608;48.790;9.198;2024-02-23T04:02:17;118.10;;;55.00;;
13083;SDS011;6608;48.790;9.198;2024-02-23T04:04:44;119.53;;;55.13;;
13083;SDS011;6608;48.790;9.198;2024-02-23T04:07:10;120.60;;;55.80;;
13083;SDS011;6608;48.790;9.198;2024-02-23T04:09:38;121.30;;;55.80;;
13083;SDS011;6608;48.790;9.198;2024-02-23T04:12:04;120.37;;;54.87;;
13083;SDS011;6608;48.790;9.198;2024-02-23T04:14:32;118.40;;;54.53;;
13083;SDS011;6608;48.790;9.198;2024-02-23T04:17:01;122.17;;;56.07;;
13083;SDS011;6608;48.790;9.198;2024-02-23T04:19:27;124.03;;;55.83;;
13083;SDS011;6608;48.790;9.198;2024-02-23T04:21:54;122.43;;;56.17;;
13083;SDS011;6608;48.790;9.198;2024-02-23T04:24:20;118.93;;;55.33;;
13083;SDS011;6608;48.790;9.198;2024-02-23T04:26:48;121.07;;;55.77;;
13083;SDS011;6608;48.790;9.198;2024-02-23T04:29:15;118.53;;;55.00;;
13083;SDS011;6608;48.790;9.198;2024-02-23T04:31:42;122.67;;;55.87;;
13083;SDS011;6608;48.790;9.198;2024-02-23T04:34:08;122.67;;;55.73;;
13083;SDS011;6608;48.790;9.198;2024-02-23T04:36:34;111.23;;;52.00;;
13083;SDS011;6608;48.790;9.198;2024-02-23T04:39:01;122.47;;;56.37;;
13083;SDS011;6608;48.790;9.198;2024-02-23T04:41:27;119.57;;;55.43;;
13083;SDS011;6608;48.790;9.198;2024-02-23T04:43:55;118.60;;;55.07;;
13083;SDS011;6608;48.790;9.198;2024-02-23T04:46:25;118.80;;;55.17;;
13083;SDS011;6608;48.790;9.198;2024-02-23T04:48:51;121.37;;;55.77;;
13083;SDS011;6608;48.790;9.198;2024-02-23T04:51:17;129.60;;;61.10;;
13083;SDS011;6608;48.790;9.198;2024-02-23T04:53:44;128.87;;;61.00;;
13083;SDS011;6608;48.790;9.198;2024-02-23T04:56:11;120.77;;;55.50;;
13083;SDS011;6608;48.790;9.198;2024-02-23T04:58:38;119.40;;;55.40;;
13083;SDS011;6608;48.790;9.198;2024-02-23T05:01:07;120.33;;;55.53;;
13083;SDS011;6608;48.790;9.198;2024-02-23T05:03:34;121.70;;;55.77;;
13083;SDS011;6608;48.790;9.198;2024-02-23T05:06:01;121.90;;;55.17;;
13083;SDS011;6608;48.790;9.198;2024-02-23T05:08:28;121.80;;;55.27;;
13083;SDS011;6608;48.790;9.198;2024-02-23T05:10:55;123.90;;;55.73;;
13083;SDS011;6608;48.790;9.198;2024-02-23T05:13:21;121.33;;;55.13;;
13083;SDS011;6608;48.790;9.198;2024-02-23T05:15:48;124.30;;;55.47;;
13083;SDS011;6608;48.790;9.198;2024-02-23T05:18:15;125.40;;;55.33;;
13083;SDS011;6608;48.790;9.198;2024-02-23T05:20:42;119.40;;;54.70;;
13083;SDS011;6608;48.790;9.198;2024-02-23T05:23:08;121.43;;;55.50;;
13083;SDS011;6608;48.790;9.198;2024-02-23T05:25:35;119.67;;;55.13;;
13083;SDS011;6608;48.790;9.198;2024-02-23T05:28:01;122.67;;;56.23;;
13083;SDS011;6608;48.790;9.198;2024-02-23T05:30:28;122.97;;;55.90;;
13083;SDS011;6608;48.790;9.198;2024-02-23T05:32:56;120.17;;;55.10;;
13083;SDS011;6608;48.790;9.198;2024-02-23T05:35:24;123.07;;;55.67;;
13083;SDS011;6608;48.790;9.198;2024-02-23T05:37:51;121.63;;;55.00;;
13083;SDS011;6608;48.790;9.198;2024-02-23T05:40:17;125.30;;;55.97;;
13083;SDS011;6608;48.790;9.198;2024-02-23T05:42:44;118.60;;;54.23;;
13083;SDS011;6608;48.790;9.198;2024-02-23T05:45:10;120.93;;;55.13;;
13083;SDS011;6608;48.790;9.198;2024-02-23T05:47:37;123.60;;;55.53;;
13083;SDS011;6608;48.790;9.198;2024-02-23T05:50:03;121.37;;;55.30;;
13083;SDS011;6608;48.790;9.198;2024-02-23T05:52:32;122.43;;;55.97;;
13083;SDS011;6608;48.790;9.198;2024-02-23T05:54:58;120.07;;;55.17;;
13083;SDS011;6608;48.790;9.198;2024-02-23T05:57:25;117.67;;;54.60;;
13083;SDS011;6608;48.790;9.198;2024-02-23T05:59:51;123.03;;;56.13;;
13083;SDS011;6608;48.790;9.198;2024-02-23T06:02:18;117.63;;;54.33;;
13083;SDS011;6608;48.790;9.198;2024-02-23T06:04:44;120.97;;;55.30;;
13083;SDS011;6608;48.790;9.198;2024-02-23T06:07:11;122.47;;;55.17;;
13083;SDS011;6608;48.790;9.198;2024-02-23T06:09:38;123.03;;;56.00;;
13083;SDS011;6608;48.790;9.198;2024-02-23T06:12:05;120.40;;;54.47;;
13083;SDS011;6608;48.790;9.198;2024-02-23T06:14:32;120.20;;;55.00;;
13083;SDS011;6608;48.790;9.198;2024-02-23T06:16:58;120.17;;;55.27;;
13083;SDS011;6608;48.790;9.198;2024-02-23T06:19:25;124.70;;;55.70;;
13083;SDS011;6608;48.790;9.198;2024-02-23T06:21:51;124.90;;;56.40;;
13083;SDS011;6608;48.790;9.198;2024-02-23T06:24:17;119.87;;;54.57;;
13083;SDS011;6608;48.790;9.198;2024-02-23T06:26:46;118.20;;;54.50;;
13083;SDS011;6608;48.790;9.198;2024-02-23T06:29:14;118.23;;;54.43;;
13083;SDS011;6608;48.790;9.198;2024-02-23T06:31:40;121.67;;;55.40;;
13083;SDS011;6608;48.790;9.198;2024-02-23T06:34:07;115.87;;;53.80;;
13083;SDS011;6608;48.790;9.198;2024-02-23T06:36:34;123.33;;;55.50;;
13083;SDS011;6608;48.790;9.198;2024-02-23T06:39:00;116.90;;;53.93;;
13083;SDS011;6608;48.790;9.198;2024-02-23T06:41:27;112.60;;;53.00;;
13083;SDS011;6608;48.790;9.198;2024-02-23T06:43:55;122.97;;;55.10;;
13083;SDS011;6608;48.790;9.198;2024-02-23T06:46:21;119.27;;;55.10;;
13083;SDS011;6608;48.790;9.198;2024-02-23T06:48:48;121.07;;;55.27;;
13083;SDS011;6608;48.790;9.198;2024-02-23T06:51:14;115.20;;;53.87;;
13083;SDS011;6608;48.790;9.198;2024-02-23T06:53:41;118.03;;;54.43;;
13083;SDS011;6608;48.790;9.198;2024-02-23T06:56:08;117.83;;;55.10;;
13083;SDS011;6608;48.790;9.198;2024-02-23T06:58:34;119.60;;;55.73;;
13083;SDS011;6608;48.790;9.198;2024-02-23T07:01:02;115.30;;;54.30;;
13083;SDS011;6608;48.790;9.198;2024-02-23T07:03:30;116.47;;;54.87;;
13083;SDS011;6608;48.790;9.198;2024-02-23T07:05:57;117.73;;;55.10;;
13083;SDS011;6608;48.790;9.198;2024-02-23T07:08:23;116.93;;;55.07;;
13083;SDS011;6608;48.790;9.198;2024-02-23T07:10:50;114.90;;;54.50;;
13083;SDS011;6608;48.790;9.198;2024-02-23T07:13:16;126.37;;;59.23;;
13083;SDS011;6608;48.790;9.198;2024-02-23T07:15:44;120.80;;;56.53;;
13083;SDS011;6608;48.790;9.198;2024-02-23T07:18:12;119.33;;;54.73;;
13083;SDS011;6608;48.790;9.198;2024-02-23T07:20:38;118.07;;;55.40;;
13083;SDS011;6608;48.790;9.198;2024-02-23T07:23:05;119.27;;;55.03;;
13083;SDS011;6608;48.790;9.198;2024-02-23T07:25:31;120.70;;;56.07;;
13083;SDS011;6608;48.790;9.198;2024-02-23T07:28:00;119.20;;;56.00;;
13083;SDS011;6608;48.790;9.198;2024-02-23T07:30:27;131.40;;;59.37;;
13083;SDS011;6608;48.790;9.198;2024-02-23T07:32:53;116.50;;;55.07;;
13083;SDS011;6608;48.790;9.198;2024-02-23T07:35:22;118.50;;;54.63;;
13083;SDS011;6608;48.790;9.198;2024-02-23T07:37:48;110.63;;;51.90;;
13083;SDS011;6608;48.790;9.198;2024-02-23T07:40:15;118.77;;;55.60;;
13083;SDS011;6608;48.790;9.198;2024-02-23T07:42:41;119.07;;;55.67;;
13083;SDS011;6608;48.790;9.198;2024-02-23T07:45:08;118.93;;;55.57;;
13083;SDS011;6608;48.790;9.198;2024-02-23T07:47:35;118.60;;;55.30;;
13083;SDS011;6608;48.790;9.198;2024-02-23T07:50:02;116.33;;;54.90;;
13083;SDS011;6608;48.790;9.198;2024-02-23T07:52:30;117.80;;;55.37;;
13083;SDS011;6608;48.790;9.198;2024-02-23T07:54:56;121.17;;;55.83;;
13083;SDS011;6608;48.790;9.198;2024-02-23T07:57:25;118.77;;;55.60;;
13083;SDS011;6608;48.790;9.198;2024-02-23T07:59:51;121.10;;;55.83;;
13083;SDS011;6608;48.790;9.198;2024-02-23T08:02:17;118.97;;;55.67;;
13083;SDS011;6608;48.790;9.198;2024-02-23T08:04:44;126.37;;;57.80;;
13083;SDS011;6608;48.790;9.198;2024-02-23T08:07:12;121.50;;;56.00;;
13083;SDS011;6608;48.790;9.198;2024-02-23T08:09:41;119.80;;;56.10;;
13083;SDS011;6608;48.790;9.198;2024-02-23T08:12:07;119.07;;;55.37;;
13083;SDS011;6608;48.790;9.198;2024-02-23T08:14:34;116.90;;;55.10;;
13083;SDS011;6608;48.790;9.198;2024-02-23T08:17:00;122.37;;;56.67;;
13083;SDS011;6608;48.790;9.198;2024-02-23T08:19:27;124.70;;;57.57;;
13083;SDS011;6608;48.790;9.198;2024-02-23T08:21:53;120.00;;;55.70;;
13083;SDS011;6608;48.790;9.198;2024-02-23T08:24:20;120.17;;;56.03;;
13083;SDS011;6608;48.790;9.198;2024-02-23T08:26:49;120.63;;;56.30;;
13083;SDS011;6608;48.790;9.198;2024-02-23T08:29:15;138.33;;;63.23;;
13083;SDS011;6608;48.790;9.198;2024-02-23T08:31:42;117.80;;;54.50;;
13083;SDS011;6608;48.790;9.198;2024-02-23T08:34:08;116.40;;;54.60;;
13083;SDS011;6608;48.790;9.198;2024-02-23T08:36:41;121.57;;;55.13;;
13083;SDS011;6608;48.790;9.198;2024-02-23T08:39:07;116.00;;;54.63;;
13083;SDS011;6608;48.790;9.198;2024-02-23T08:41:34;115.37;;;53.33;;
13083;SDS011;6608;48.790;9.198;2024-02-23T08:44:02;116.30;;;54.70;;
13083;SDS011;6608;48.790;9.198;2024-02-23T08:46:29;112.63;;;53.50;;
13083;SDS011;6608;48.790;9.198;2024-02-23T08:48:55;118.93;;;54.97;;
13083;SDS011;6608;48.790;9.198;2024-02-23T08:51:22;117.10;;;54.50;;
13083;SDS011;6608;48.790;9.198;2024-02-23T08:53:48;114.87;;;52.37;;
13083;SDS011;6608;48.790;9.198;2024-02-23T08:56:15;111.87;;;53.00;;
13083;SDS011;6608;48.790;9.198;2024-02-23T08:58:42;116.47;;;53.97;;
13083;SDS011;6608;48.790;9.198;2024-02-23T09:01:12;112.03;;;52.90;;
13083;SDS011;6608;48.790;9.198;2024-02-23T09:03:39;113.40;;;53.07;;
13083;SDS011;6608;48.790;9.198;2024-02-23T09:06:05;112.97;;;52.77;;
13083;SDS011;6608;48.790;9.198;2024-02-23T09:08:35;113.47;;;53.23;;
13083;SDS011;6608;48.790;9.198;2024-02-23T09:11:02;116.43;;;54.50;;
13083;SDS011;6608;48.790;9.198;2024-02-23T09:13:28;110.93;;;52.47;;
13083;SDS011;6608;48.790;9.198;2024-02-23T09:15:55;112.07;;;52.93;;
13083;SDS011;6608;48.790;9.198;2024-02-23T09:18:25;112.67;;;52.93;;
13083;SDS011;6608;48.790;9.198;2024-02-23T09:20:52;112.57;;;52.80;;
13083;SDS011;6608;48.790;9.198;2024-02-23T09:23:18;112.07;;;53.03;;
13083;SDS011;6608;48.790;9.198;2024-02-23T09:25:46;125.10;;;57.70;;
13083;SDS011;6608;48.790;9.198;2024-02-23T09:28:13;125.87;;;56.73;;
13083;SDS011;6608;48.790;9.198;2024-02-23T09:30:40;119.83;;;55.53;;
13083;SDS011;6608;48.790;9.198;2024-02-23T09:33:06;128.30;;;58.10;;
13083;SDS011;6608;48.790;9.198;2024-02-23T09:35:34;115.17;;;54.37;;
13083;SDS011;6608;48.790;9.198;2024-02-23T09:38:01;123.27;;;56.90;;
13083;SDS011;6608;48.790;9.198;2024-02-23T09:40:28;120.50;;;55.80;;
13083;SDS011;6608;48.790;9.198;2024-02-23T09:42:55;128.33;;;58.60;;
13083;SDS011;6608;48.790;9.198;2024-02-23T09:45:21;125.87;;;56.73;;
13083;SDS011;6608;48.790;9.198;2024-02-23T09:47:48;124.87;;;57.10;;
13083;SDS011;6608;48.790;9.198;2024-02-23T09:50:15;130.17;;;58.37;;
13083;SDS011;6608;48.790;9.198;2024-02-23T09:52:47;130.17;;;57.20;;
13083;SDS011;6608;48.790;9.198;2024-02-23T09:55:15;129.60;;;58.20;;
13083;SDS011;6608;48.790;9.198;2024-02-23T09:57:42;133.17;;;58.73;;
13083;SDS011;6608;48.790;9.198;2024-02-23T10:00:09;135.23;;;59.80;;
13083;SDS011;6608;48.790;9.198;2024-02-23T10:02:36;136.50;;;59.30;;
13083;SDS011;6608;48.790;9.198;2024-02-23T10:05:03;142.00;;;59.50;;
13083;SDS011;6608;48.790;9.198;2024-02-23T10:07:31;136.03;;;59.10;;
13083;SDS011;6608;48.790;9.198;2024-02-23T10:10:11;136.40;;;59.37;;
13083;SDS011;6608;48.790;9.198;2024-02-23T10:12:40;132.43;;;58.73;;
13083;SDS011;6608;48.790;9.198;2024-02-23T10:15:07;133.77;;;59.57;;
13083;SDS011;6608;48.790;9.198;2024-02-23T10:17:33;134.83;;;59.93;;
13083;SDS011;6608;48.790;9.198;2024-02-23T10:19:59;130.40;;;58.73;;
13083;SDS011;6608;48.790;9.198;2024-02-23T10:22:30;133.70;;;59.43;;
13083;SDS011;6608;48.790;9.198;2024-02-23T10:24:56;132.50;;;58.70;;
13083;SDS011;6608;48.790;9.198;2024-02-23T10:27:24;128.73;;;57.77;;
13083;SDS011;6608;48.790;9.198;2024-02-23T10:29:51;133.87;;;58.50;;
13083;SDS011;6608;48.790;9.198;2024-02-23T10:32:19;128.70;;;58.53;;
13083;SDS011;6608;48.790;9.198;2024-02-23T10:34:47;129.00;;;58.30;;
13083;SDS011;6608;48.790;9.198;2024-02-23T10:37:21;130.33;;;58.83;;
13083;SDS011;6608;48.790;9.198;2024-02-23T10:39:48;134.03;;;59.33;;
13083;SDS011;6608;48.790;9.198;2024-02-23T10:42:16;137.60;;;60.00;;
13083;SDS011;6608;48.790;9.198;2024-02-23T10:44:46;127.47;;;58.17;;
13083;SDS011;6608;48.790;9.198;2024-02-23T10:47:13;128.60;;;59.03;;
13083;SDS011;6608;48.790;9.198;2024-02-23T10:49:40;129.17;;;58.87;;
13083;SDS011;6608;48.790;9.198;2024-02-23T10:52:08;127.03;;;56.73;;
13083;SDS011;6608;48.790;9.198;2024-02-23T10:54:37;128.57;;;58.10;;
13083;SDS011;6608;48.790;9.198;2024-02-23T10:57:04;132.33;;;60.07;;
13083;SDS011;6608;48.790;9.198;2024-02-23T10:59:31;131.33;;;58.93;;
13083;SDS011;6608;48.790;9.198;2024-02-23T11:01:59;131.10;;;58.03;;
13083;SDS011;6608;48.790;9.198;2024-02-23T11:04:25;129.40;;;58.37;;
13083;SDS011;6608;48.790;9.198;2024-02-23T11:06:52;123.60;;;56.00;;
13083;SDS011;6608;48.790;9.198;2024-02-23T11:09:20;130.23;;;58.67;;
13083;SDS011;6608;48.790;9.198;2024-02-23T11:11:53;133.53;;;59.33;;
13083;SDS011;6608;48.790;9.198;2024-02-23T11:14:28;134.73;;;59.80;;
13083;SDS011;6608;48.790;9.198;2024-02-23T11:16:55;139.27;;;62.83;;
13083;SDS011;6608;48.790;9.198;2024-02-23T11:19:31;132.27;;;59.50;;
13083;SDS011;6608;48.790;9.198;2024-02-23T11:21:58;131.73;;;58.70;;
13083;SDS011;6608;48.790;9.198;2024-02-23T11:24:25;132.27;;;59.57;;
13083;SDS011;6608;48.790;9.198;2024-02-23T11:26:55;132.93;;;58.90;;
13083;SDS011;6608;48.790;9.198;2024-02-23T11:29:22;131.23;;;58.63;;
13083;SDS011;6608;48.790;9.198;2024-02-23T11:31:52;129.20;;;57.80;;
13083;SDS011;6608;48.790;9.198;2024-02-23T11:34:22;134.13;;;59.43;;
13083;SDS011;6608;48.790;9.198;2024-02-23T11:36:50;134.23;;;58.73;;
13083;SDS011;6608;48.790;9.198;2024-02-23T11:39:17;133.60;;;58.97;;
13083;SDS011;6608;48.790;9.198;2024-02-23T11:41:43;127.43;;;58.00;;
13083;SDS011;6608;48.790;9.198;2024-02-23T11:44:10;131.17;;;57.97;;
13083;SDS011;6608;48.790;9.198;2024-02-23T11:46:38;128.83;;;58.27;;
13083;SDS011;6608;48.790;9.198;2024-02-23T11:49:05;127.03;;;57.50;;
13083;SDS011;6608;48.790;9.198;2024-02-23T11:51:32;132.73;;;58.63;;
13083;SDS011;6608;48.790;9.198;2024-02-23T11:53:59;129.47;;;58.70;;
13083;SDS011;6608;48.790;9.198;2024-02-23T11:56:26;134.63;;;59.13;;
13083;SDS011;6608;48.790;9.198;2024-02-23T11:58:53;130.33;;;58.03;;
13083;SDS011;6608;48.790;9.198;2024-02-23T12:01:20;132.10;;;58.17;;
13083;SDS011;6608;48.790;9.198;2024-02-23T12:03:46;128.70;;;58.50;;
13083;SDS011;6608;48.790;9.198;2024-02-23T12:06:13;125.70;;;56.47;;
13083;SDS011;6608;48.790;9.198;2024-02-23T12:08:42;129.93;;;58.13;;
13083;SDS011;6608;48.790;9.198;2024-02-23T12:11:10;128.93;;;58.07;;
13083;SDS011;6608;48.790;9.198;2024-02-23T12:13:38;131.73;;;59.33;;
13083;SDS011;6608;48.790;9.198;2024-02-23T12:16:06;130.57;;;58.50;;
13083;SDS011;6608;48.790;9.198;2024-02-23T12:18:33;129.57;;;57.27;;
13083;SDS011;6608;48.790;9.198;2024-02-23T12:20:59;130.43;;;58.33;;
13083;SDS011;6608;48.790;9.198;2024-02-23T12:23:27;128.87;;;57.40;;
13083;SDS011;6608;48.790;9.198;2024-02-23T12:25:55;133.60;;;60.27;;
13083;SDS011;6608;48.790;9.198;2024-02-23T12:28:22;124.93;;;57.00;;
13083;SDS011;6608;48.790;9.198;2024-02-23T12:30:57;131.90;;;58.93;;
13083;SDS011;6608;48.790;9.198;2024-02-23T12:33:23;128.63;;;57.87;;
13083;SDS011;6608;48.790;9.198;2024-02-23T12:35:50;126.07;;;56.90;;
13083;SDS011;6608;48.790;9.198;2024-02-23T12:38:16;129.73;;;57.50;;
13083;SDS011;6608;48.790;9.198;2024-02-23T12:40:43;126.90;;;57.47;;
13083;SDS011;6608;48.790;9.198;2024-02-23T12:43:11;124.17;;;56.47;;
13083;SDS011;6608;48.790;9.198;2024-02-23T12:45:41;127.50;;;57.63;;
13083;SDS011;6608;48.790;9.198;2024-02-23T12:48:09;132.57;;;58.90;;
13083;SDS011;6608;48.790;9.198;2024-02-23T12:50:35;127.67;;;57.43;;
13083;SDS011;6608;48.790;9.198;2024-02-23T12:53:02;133.57;;;59.30;;
13083;SDS011;6608;48.790;9.198;2024-02-23T12:55:29;129.70;;;58.50;;
13083;SDS011;6608;48.790;9.198;2024-02-23T12:57:55;136.40;;;60.60;;
13083;SDS011;6608;48.790;9.198;2024-02-23T13:00:23;124.43;;;56.60;;
13083;SDS011;6608;48.790;9.198;2024-02-23T13:02:50;128.17;;;57.13;;
13083;SDS011;6608;48.790;9.198;2024-02-23T13:05:16;134.60;;;58.57;;
13083;SDS011;6608;48.790;9.198;2024-02-23T13:07:42;134.17;;;59.60;;
13083;SDS011;6608;48.790;9.198;2024-02-23T13:10:09;127.80;;;58.43;;
13083;SDS011;6608;48.790;9.198;2024-02-23T13:12:35;131.70;;;58.37;;
13083;SDS011;6608;48.790;9.198;2024-02-23T13:15:02;129.47;;;58.70;;
13083;SDS011;6608;48.790;9.198;2024-02-23T13:17:30;141.07;;;63.83;;
13083;SDS011;6608;48.790;9.198;2024-02-23T13:19:56;136.90;;;60.70;;
13083;SDS011;6608;48.790;9.198;2024-02-23T13:22:23;136.50;;;60.77;;
13083;SDS011;6608;48.790;9.198;2024-02-23T13:24:49;131.87;;;59.57;;
13083;SDS011;6608;48.790;9.198;2024-02-23T13:27:15;129.00;;;57.67;;
13083;SDS011;6608;48.790;9.198;2024-02-23T13:29:42;129.53;;;59.10;;
13083;SDS011;6608;48.790;9.198;2024-02-23T13:32:08;135.87;;;61.27;;
13083;SDS011;6608;48.790;9.198;2024-02-23T13:34:40;133.33;;;61.03;;
13083;SDS011;6608;48.790;9.198;2024-02-23T13:37:17;131.63;;;58.50;;
13083;SDS011;6608;48.790;9.198;2024-02-23T13:39:43;139.37;;;62.80;;
13083;SDS011;6608;48.790;9.198;2024-02-23T13:42:10;138.60;;;62.40;;
13083;SDS011;6608;48.790;9.198;2024-02-23T13:44:36;146.20;;;66.47;;
13083;SDS011;6608;48.790;9.198;2024-02-23T13:47:03;128.73;;;58.97;;
13083;SDS011;6608;48.790;9.198;2024-02-23T13:49:30;129.00;;;57.93;;
13083;SDS011;6608;48.790;9.198;2024-02-23T13:51:58;128.30;;;58.53;;
13083;SDS011;6608;48.790;9.198;2024-02-23T13:54:24;126.23;;;57.67;;
13083;SDS011;6608;48.790;9.198;2024-02-23T13:56:51;132.57;;;58.97;;
13083;SDS011;6608;48.790;9.198;2024-02-23T13:59:17;129.53;;;58.33;;
13083;SDS011;6608;48.790;9.198;2024-02-23T14:01:46;131.80;;;59.10;;
13083;SDS011;6608;48.790;9.198;2024-02-23T14:04:13;133.97;;;60.83;;
13083;SDS011;6608;48.790;9.198;2024-02-23T14:06:39;130.10;;;59.03;;
13083;SDS011;6608;48.790;9.198;2024-02-23T14:09:07;126.07;;;58.10;;
13083;SDS011;6608;48.790;9.198;2024-02-23T14:11:33;128.37;;;57.53;;
13083;SDS011;6608;48.790;9.198;2024-02-23T14:14:00;127.67;;;56.97;;
13083;SDS011;6608;48.790;9.198;2024-02-23T14:16:30;130.90;;;58.70;;
13083;SDS011;6608;48.790;9.198;2024-02-23T14:18:56;128.53;;;58.67;;
13083;SDS011;6608;48.790;9.198;2024-02-23T14:21:23;128.23;;;58.80;;